Reno, NV (89501)

1:34 AM PST on December 03, 2016 (GMT -0800)
UNR Campus, LMR Roof | | Change Station

Elev 4570 ft 39.54 °N, 119.81 °W | Updated 0 second ago

Clear
Clear
26.9 °F
Feels Like 27 °F
N
2.2
Wind Variable Wind from West
Gusts 0.0 mph

Today
High -- | Low -- °F
--% Chance of Precip.
Yesterday
High -- | Low -- °F
Precip. -- in
Pressure 30.36 in
Visibility 10.0 miles
Clouds Clear
Windchill 27 °F
Dew Point 16 °F
Humidity 63%
Rainfall 0.00 in
Snow Depth Not available.
7:03 AM 4:35 PM
Waxing Crescent, 13% visible
METAR KRNO 030755Z 00000KT 10SM CLR M02/M10 A3033 RMK AO2 SLP281 T10221100 400441061
Pressure 30.36 in
Visibility 10.0 miles
Clouds Clear
Windchill 27 °F
Dew Point 16 °F
Humidity 63%
Rainfall 0.00 in
Snow Depth Not available.
7:03 AM 4:35 PM
Waxing Crescent, 13% visible
METAR KRNO 030755Z 00000KT 10SM CLR M02/M10 A3033 RMK AO2 SLP281 T10221100 400441061

10-Day Weather Forecast

Almanac

Astronomy

Dec. 03, 2016 Rise Set
Actual Time
Civil Twilight
Nautical Twilight
Astronomical Twilight
Moon
Length of Visible Light
Length of Day
Tomorrow will be .
, % of the Moon is Illuminated

Today's Extremes

State Highs State Lows

Community

WunderPhotos

Upload Photos

1,955,434 photos uploaded!

WunderBlog® & News

Nearby

Air Quality

  Air Quality AQ Index Pollutant
Not available.

Snow Depth

Station Depth Elevation

Earthquake Activity

City Distance Mag. Time & Date
Minimum magnitude displayed is 2.5.

Coastal Water Temperatures

Place Temperature

Stations

Nearby Weather Stations

Station Location Temp. Windchill Dew Point Humidity Wind Precip. Elev Updated Type
                   

Watches & Warnings

There are currently no watches in effect.